Latest Coastal Weather Observations for Bunbury

IDW60701

Issued at 5:22 am WST Saturday 1 August 2015 (issued every 10 minutes, with the page automatically refreshed every 10 minutes)

About coastal observations | Map of coastal stations | Coastal observations for WA | Marine services | Other Formats
Station Details ID: 009965 Name: BUNBURY Lat: -33.36 Lon: 115.64 Height: 5.2 m
Data from the previous 72 hours. | See also: Recent months at Bunbury
Date/Time
WST
Temp

°C
Wind Pressure Rain
since 9am
mm
Weather Cloud Vis
km
Sea
Height
m
Swell
Dir
 
Speed
knots
Gust
knots
hPa Trend Height
m
Period
s
Dir
01/05:00am 10.4 SSE 7 11 1021.8 - 0.6 - - - - - - -
01/04:30am 11.0 SE 9 15 1021.4 - 0.6 - - - - - - -
01/04:00am 11.1 SSE 9 15 1021.1 - 0.6 - - - - - - -
01/03:30am 11.1 SSE 8 13 1020.7 - 0.6 - - - - - - -
01/03:00am 11.4 SSE 7 13 1020.7 - 0.6 - - - - - - -
01/02:30am 12.0 SSE 8 13 1020.4 - 0.6 - - - - - - -
01/02:00am 12.2 SSE 9 16 1020.0 - 0.6 - - - - - - -
01/01:30am 12.3 SE 10 17 1019.3 - 0.6 - - - - - - -
01/01:00am 12.3 SE 14 21 1019.0 - 0.6 - - - - - - -
01/12:30am 12.3 SE 12 18 1018.8 - 0.4 - - - - - - -
01/12:00am 12.1 SE 14 22 1018.4 - 0.4 - - - - - - -
 
Date/Time
WST
Temp

°C
Wind Pressure Rain
since 9am
mm
Weather Cloud Vis
km
Sea
Height
m
Swell
Dir
 
Speed
knots
Gust
knots
hPa Trend Height
m
Period
s
Dir
31/11:58pm 12.0 SE 15 25 1018.4 - 0.4 - - - - - - -
31/11:30pm 12.2 SE 17 23 1018.1 - 0.4 - - - - - - -
31/11:19pm 12.0 SE 16 28 1018.0 - 0.4 - - - - - - -
31/11:00pm 12.1 SE 14 22 1017.9 - 0.4 - - - - - - -
31/10:37pm 12.4 SE 15 28 1017.7 - 0.4 - - - - - - -
31/10:30pm 12.2 SE 13 20 1017.7 - 0.4 - - - - - - -
31/10:00pm 12.4 SE 16 28 1017.6 - 0.4 - - - - - - -
31/09:51pm 12.4 SE 16 28 1017.5 - 0.4 - - - - - - -
31/09:30pm 12.4 SE 16 22 1017.4 - 0.4 - - - - - - -
31/09:00pm 12.3 SE 14 23 1017.1 - 0.4 - - - - - - -
31/08:30pm 12.4 SE 14 20 1016.6 - 0.4 - - - - - - -
31/08:00pm 12.5 SE 15 22 1016.2 - 0.4 - - - - - - -
31/07:30pm 12.4 SE 17 32 1015.8 - 0.4 - - - - - - -
31/07:18pm 12.5 SE 17 27 1015.5 - 0.4 - - - - - - -
31/07:00pm 12.6 SE 16 25 1015.4 - 0.4 - - - - - - -
31/06:30pm 13.1 SE 16 25 1014.8 - 0.4 - - - - - - -
31/06:00pm 13.4 SE 14 19 1014.0 - 0.4 - - - - - - -
31/05:30pm 13.7 SE 11 17 1013.6 - 0.4 - - - - - - -
31/05:00pm 15.1 SE 12 18 1013.1 - 0.4 - - - - - - -
31/04:30pm 16.4 SE 15 21 1012.7 - 0.4 - - - - - - -
31/04:00pm 17.7 ESE 11 15 1012.1 - 0.2 - - - - - - -
31/03:30pm 18.1 SSE 11 17 1011.4 - 0.2 - - - - - - -
31/03:00pm 18.5 SE 9 14 1011.3 - 0.2 - - - - - - -
31/02:30pm 18.3 SE 8 13 1011.3 - 0.2 - - - - - - -
31/02:00pm 18.9 SSW 11 16 1011.3 - 0.2 - - - - - - -
31/01:30pm 20.5 W 5 7 1011.2 - 0.2 - - - - - - -
31/01:00pm 20.5 W 3 5 1011.2 - 0.2 - - - - - - -
31/12:30pm 20.3 W 3 5 1011.5 - 0.0 - - - - - - -
31/12:00pm 19.0 WSW 5 7 1011.9 - 0.0 - - - - - - -
31/11:30am 19.5 NW 4 6 1012.2 - 0.0 - - - - - - -
31/11:00am 19.5 NNE 2 4 1012.6 - 0.0 - - - - - - -
31/10:30am 19.1 NE 4 5 1012.8 - 0.0 - - - - - - -
31/10:00am 17.8 NE 3 5 1013.1 - 0.0 - - - - - - -
31/09:30am 17.0 NE 3 4 1013.1 - 0.0 - - - - - - -
31/09:00am 16.0 ESE 2 4 1012.7 - 41.2 - - - - - - -
31/08:30am 15.1 ESE 1 2 1012.4 - 41.2 - - - - - - -
31/08:00am 13.7 CALM 0 2 1012.4 - 41.2 - - - - - - -
31/07:30am 13.8 CALM 0 0 1012.0 - 41.2 - - - - - - -
31/07:00am 14.2 NE 2 3 1011.6 - 41.2 - - - - - - -
31/06:30am 14.5 NE 1 2 1011.7 - 41.2 - - - - - - -
31/06:00am 15.0 N 1 3 1011.7 - 41.2 Recent precip. - - - - - -
31/05:30am 15.5 N 6 8 1011.6 - 41.2 - - - - - - -
31/05:00am 16.0 NNE 2 3 1011.3 - 40.0 - - - - - - -
31/04:30am 16.0 W 9 15 1011.8 - 38.0 - - - - - - -
31/04:00am 16.2 NW 7 9 1012.1 - 23.4 - - - - - - -
31/03:30am 16.4 N 13 19 1011.5 - 14.4 - - - - - - -
31/03:00am 16.7 N 12 19 1011.3 - 11.8 - - - - - - -
31/02:30am 16.6 NNE 10 15 1012.0 - 11.8 - - - - - - -
31/02:00am 16.8 N 9 14 1012.5 - 11.8 - - - - - - -
31/01:30am 16.3 N 9 14 1012.8 - 11.8 - - - - - - -
31/01:00am 16.1 N 7 10 1013.3 - 11.8 - - - - - - -
31/12:30am 16.2 N 9 14 1013.4 - 11.0 - - - - - - -
31/12:00am 16.5 N 10 14 1013.5 - 10.6 - - - - - - -
 
Date/Time
WST
Temp

°C
Wind Pressure Rain
since 9am
mm
Weather Cloud Vis
km
Sea
Height
m
Swell
Dir
 
Speed
knots
Gust
knots
hPa Trend Height
m
Period
s
Dir
30/11:30pm 16.6 N 11 17 1013.7 - 10.6 - - - - - - -
30/11:00pm 17.2 N 16 22 1013.6 - 10.6 - - - - - - -
30/10:30pm 17.4 NNE 7 16 1013.8 - 10.6 - - - - - - -
30/10:00pm 18.2 N 10 17 1014.7 - 10.6 - - - - - - -
30/09:30pm 17.8 N 12 18 1014.8 - 10.6 - - - - - - -
30/09:00pm 17.5 NNE 7 13 1015.1 - 10.6 Recent precip. - - - - - -
30/08:30pm 17.5 N 8 13 1014.8 - 10.6 - - - - - - -
30/08:00pm 17.6 N 8 12 1015.4 - 10.2 - - - - - - -
30/07:30pm 17.0 NNE 4 8 1015.0 - 10.2 - - - - - - -
30/07:00pm 17.4 N 10 19 1015.5 - 8.4 - - - - - - -
30/06:30pm 17.9 N 8 13 1015.6 - 7.6 - - - - - - -
30/06:00pm 17.9 N 7 12 1015.7 - 7.6 - - - - - - -
30/05:30pm 17.9 N 9 13 1015.8 - 7.6 - - - - - - -
30/05:00pm 17.9 N 8 11 1015.4 - 7.6 - - - - - - -
30/04:30pm 17.8 N 6 8 1015.6 - 7.6 - - - - - - -
30/04:00pm 18.0 ENE 4 6 1015.6 - 6.6 - - - - - - -
30/03:30pm 18.2 E 4 6 1016.0 - 5.6 - - - - - - -
30/03:00pm 18.4 E 4 6 1016.3 - 5.4 Recent precip. - - - - - -
30/02:30pm 17.6 E 3 5 1016.8 - 5.4 - - - - - - -
30/02:00pm 17.5 E 4 6 1017.0 - 5.0 - - - - - - -
30/01:30pm 17.6 E 3 4 1017.6 - 4.6 - - - - - - -
30/01:00pm 17.9 E 2 5 1018.1 - 2.6 - - - - - - -
30/12:30pm 18.7 ENE 5 8 1018.4 - 0.0 - - - - - - -
30/12:00pm 18.6 E 4 7 1019.4 - 0.0 - - - - - - -
30/11:30am 18.3 ENE 5 8 1019.5 - 0.0 - - - - - - -
30/11:00am 17.9 E 7 10 1019.8 - 0.0 - - - - - - -
30/10:30am 16.6 E 7 10 1020.1 - 0.0 - - - - - - -
30/10:00am 15.0 E 3 4 1020.7 - 0.0 - - - - - - -
30/09:30am 14.5 SE 2 3 1020.6 - 0.0 - - - - - - -
30/09:00am 13.9 ESE 4 6 1020.5 - 1.8 Recent precip. - - - - - -
30/08:30am 13.6 ESE 4 6 1020.3 - 1.6 - - - - - - -
30/08:00am 13.2 ESE 2 2 1020.4 - 1.2 - - - - - - -
30/07:30am 13.1 ESE 3 6 1020.0 - 0.8 - - - - - - -
30/07:00am 12.6 E 3 5 1019.9 - 0.0 - - - - - - -
30/06:30am 11.9 CALM 0 2 1019.8 - 0.0 - - - - - - -
30/06:00am 11.2 ESE 2 4 1019.4 - 0.0 - - - - - - -
30/05:30am 11.2 SSE 1 4 1019.4 - 0.0 - - - - - - -
30/05:00am 11.0 S 4 5 1019.6 - 0.0 - - - - - - -
30/04:30am 10.9 S 2 3 1019.3 - 0.0 - - - - - - -
30/04:00am 10.8 E 3 4 1019.5 - 0.0 - - - - - - -
30/03:30am 11.3 CALM 0 2 1019.7 - 0.0 - - - - - - -
30/03:00am 11.4 ESE 1 2 1019.8 - 0.0 - - - - - - -
30/02:30am 11.9 CALM 0 2 1019.9 - 0.0 - - - - - - -
30/02:00am 10.2 ESE 1 2 1019.8 - 0.0 - - - - - - -
30/01:30am 12.5 ESE 1 3 1020.0 - 0.0 - - - - - - -
30/01:00am 13.3 ESE 2 3 1019.9 - 0.0 - - - - - - -
30/12:30am 12.3 CALM 0 1 1020.1 - 0.0 - - - - - - -
30/12:00am 11.6 NE 1 2 1020.2 - 0.0 - - - - - - -
 
Date/Time
WST
Temp

°C
Wind Pressure Rain
since 9am
mm
Weather Cloud Vis
km
Sea
Height
m
Swell
Dir
 
Speed
knots
Gust
knots
hPa Trend Height
m
Period
s
Dir
29/11:30pm 13.1 CALM 0 0 1019.9 - 0.0 - - - - - - -
29/11:00pm 14.4 CALM 0 0 1019.8 - 0.0 - - - - - - -
29/10:30pm 15.1 CALM 0 0 1020.1 - 0.0 - - - - - - -
29/10:00pm 14.7 ENE 1 3 1020.0 - 0.0 - - - - - - -
29/09:30pm 14.6 ENE 1 2 1019.9 - 0.0 - - - - - - -
29/09:00pm 14.6 CALM 0 0 1019.8 - 0.0 - - - - - - -
29/08:30pm 15.1 CALM 0 0 1019.6 - 0.0 - - - - - - -
29/08:00pm 16.0 CALM 0 1 1019.4 - 0.0 - - - - - - -
29/07:30pm 16.6 NW 3 4 1019.3 - 0.0 - - - - - - -
29/07:00pm 16.6 CALM 0 0 1018.9 - 0.0 - - - - - - -
29/06:30pm 16.1 CALM 0 0 1018.4 - 0.0 - - - - - - -
29/06:00pm 16.1 NNE 1 1 1018.2 - 0.0 - - - - - - -
29/05:30pm 17.1 NE 1 2 1017.7 - 0.0 - - - - - - -
29/05:00pm 18.3 NNW 4 5 1018.0 - 0.0 - - - - - - -
29/04:30pm 18.8 NW 4 6 1017.7 - 0.0 - - - - - - -
29/04:00pm 19.1 NNW 5 7 1017.6 - 0.0 - - - - - - -
29/03:30pm 18.6 NNW 5 7 1017.3 - 0.0 - - - - - - -
29/03:00pm 18.6 NNW 5 7 1017.1 - 0.0 - - - - - - -
29/02:30pm 18.2 NNW 6 9 1017.1 - 0.0 - - - - - - -
29/02:00pm 18.3 N 6 9 1017.0 - 0.0 - - - - - - -
29/01:30pm 18.3 NNW 7 10 1017.3 - 0.0 - - - - - - -
29/01:00pm 18.3 N 7 10 1017.1 - 0.0 - - - - - - -
29/12:30pm 18.1 N 7 10 1017.6 - 0.0 - - - - - - -
29/12:00pm 17.5 N 6 9 1017.9 - 0.0 - - - - - - -
29/11:30am 17.3 N 5 7 1018.0 - 0.0 - - - - - - -
29/11:00am 16.7 N 5 7 1018.2 - 0.0 - - - - - - -
29/10:30am 16.3 NNE 4 6 1018.1 - 0.0 - - - - - - -
29/10:00am 15.8 NNE 4 6 1018.5 - 0.0 - - - - - - -
29/09:30am 15.3 NNE 4 6 1018.4 - 0.0 - - - - - - -
29/09:00am 14.7 NE 2 3 1018.2 - 0.0 - - - - - - -
29/08:30am 13.9 NNE 4 6 1018.2 - 0.0 - - - - - - -
29/08:00am 13.6 NE 3 5 1017.8 - 0.0 - - - - - - -
29/07:30am 12.9 CALM 0 0 1017.8 - 0.0 - - - - - - -
29/07:00am 12.6 CALM 0 0 1017.7 - 0.0 - - - - - - -
29/06:30am 13.2 CALM 0 0 1017.4 - 0.0 - - - - - - -
29/06:00am 13.0 ESE 1 1 1017.1 - 0.0 - - - - - - -
29/05:30am 13.1 SE 1 1 1017.0 - 0.0 - - - - - - -

Other Formats:

Comma delimited format used in spreadsheet applications
http://www.bom.gov.au/fwo/IDW60701/IDW60701.94604.axf

JavaScript Object Notation format (JSON) in row-major order
http://www.bom.gov.au/fwo/IDW60701/IDW60701.94604.json